createdAt,value
2018-04-22T00:00:05.938Z,17.00
2018-04-22T00:01:06.068Z,15.80
2018-04-22T00:02:06.208Z,15.00
2018-04-22T00:03:06.367Z,17.20
2018-04-22T00:04:06.499Z,16.00
2018-04-22T00:05:06.639Z,16.10
2018-04-22T00:06:06.792Z,16.30
2018-04-22T00:07:06.935Z,17.70
2018-04-22T00:08:07.072Z,16.50
2018-04-22T00:09:07.236Z,17.00
2018-04-22T00:10:07.371Z,17.10
2018-04-22T00:11:07.524Z,17.10
2018-04-22T00:12:07.659Z,17.30
2018-04-22T00:13:07.801Z,17.50
2018-04-22T00:14:07.957Z,17.70
2018-04-22T00:15:08.092Z,17.90
2018-04-22T00:16:08.232Z,17.30
2018-04-22T00:17:08.372Z,18.20
2018-04-22T00:18:08.578Z,17.40
2018-04-22T00:19:08.676Z,17.30
2018-04-22T00:20:08.814Z,18.50
2018-04-22T00:21:08.951Z,18.10
2018-04-22T00:22:09.095Z,17.60
2018-04-22T00:23:09.230Z,16.70
2018-04-22T00:24:09.379Z,16.70
2018-04-22T00:25:09.512Z,16.90
2018-04-22T00:26:09.648Z,16.30
2018-04-22T00:27:09.800Z,17.40
2018-04-22T00:28:09.952Z,17.50
2018-04-22T00:29:10.074Z,17.80
2018-04-22T00:30:10.217Z,18.70
2018-04-22T00:31:10.398Z,18.00
2018-04-22T00:32:10.557Z,18.80
2018-04-22T00:33:10.684Z,18.10
2018-04-22T00:34:10.824Z,18.80
2018-04-22T00:35:10.966Z,17.20
2018-04-22T00:36:11.108Z,17.30
2018-04-22T00:37:11.243Z,17.10
2018-04-22T00:38:11.381Z,18.00
2018-04-22T00:39:11.513Z,18.50
2018-04-22T00:40:11.646Z,18.20
2018-04-22T00:41:11.781Z,19.00
2018-04-22T00:42:12.024Z,19.90
2018-04-22T00:43:12.083Z,19.90
2018-04-22T00:44:12.219Z,22.20
2018-04-22T00:45:12.361Z,20.60
2018-04-22T00:46:12.526Z,18.90
2018-04-22T00:47:12.658Z,19.70
2018-04-22T00:48:12.800Z,19.60
2018-04-22T00:49:12.976Z,19.50
2018-04-22T00:50:13.108Z,18.40
2018-04-22T00:51:13.247Z,19.40
2018-04-22T00:52:14.335Z,18.30
2018-04-22T00:53:13.532Z,18.70
2018-04-22T00:54:13.666Z,19.20
2018-04-22T00:55:13.800Z,18.40
2018-04-22T00:56:13.937Z,17.90
2018-04-22T00:57:14.079Z,17.70
2018-04-22T00:58:14.225Z,17.30
2018-04-22T00:59:14.368Z,18.40
2018-04-22T01:00:14.496Z,19.20
2018-04-22T01:01:14.645Z,18.50
2018-04-22T01:02:14.776Z,19.20
2018-04-22T01:03:14.911Z,18.10
2018-04-22T01:04:15.049Z,18.60
2018-04-22T01:05:15.186Z,18.80
2018-04-22T01:06:15.334Z,18.40
2018-04-22T01:07:15.471Z,17.90
2018-04-22T01:08:15.609Z,18.10
2018-04-22T01:09:15.744Z,19.00
2018-04-22T01:10:15.885Z,18.90
2018-04-22T01:11:16.016Z,18.70
2018-04-22T01:12:16.155Z,18.20
2018-04-22T01:13:16.292Z,18.60
2018-04-22T01:14:16.463Z,18.60
2018-04-22T01:15:16.595Z,19.40
2018-04-22T01:16:16.735Z,20.80
2018-04-22T01:17:16.875Z,19.90
2018-04-22T01:18:17.026Z,18.00
2018-04-22T01:19:17.155Z,18.30
2018-04-22T01:20:17.300Z,18.30
2018-04-22T01:21:17.518Z,18.20
2018-04-22T01:22:17.539Z,18.20
2018-04-22T01:23:17.680Z,18.20
2018-04-22T01:24:17.833Z,17.50
2018-04-22T01:25:17.968Z,18.90
2018-04-22T01:26:18.095Z,19.50
2018-04-22T01:27:18.235Z,19.00
2018-04-22T01:28:18.375Z,18.90
2018-04-22T01:29:18.511Z,20.00
2018-04-22T01:30:18.724Z,21.10
2018-04-22T01:31:18.736Z,21.90
2018-04-22T01:32:18.881Z,23.90
2018-04-22T01:33:19.030Z,22.60
2018-04-22T01:34:19.164Z,23.50
2018-04-22T01:35:19.303Z,23.80
2018-04-22T01:36:19.441Z,24.30
2018-04-22T01:37:19.581Z,23.30
2018-04-22T01:38:19.725Z,22.40
2018-04-22T01:39:19.866Z,20.70
2018-04-22T01:40:20.014Z,20.00
2018-04-22T01:41:20.153Z,20.40
2018-04-22T01:42:20.288Z,21.60
2018-04-22T01:43:20.430Z,21.30
2018-04-22T01:44:20.565Z,20.30
2018-04-22T01:45:20.711Z,19.60
2018-04-22T01:46:20.843Z,20.00
2018-04-22T01:47:20.981Z,21.80
2018-04-22T01:48:21.123Z,19.90
2018-04-22T01:49:21.258Z,20.20
2018-04-22T01:50:21.399Z,19.80
2018-04-22T01:51:21.537Z,20.60
2018-04-22T01:52:21.678Z,21.20
2018-04-22T01:53:21.809Z,22.10
2018-04-22T01:54:21.952Z,22.00
2018-04-22T01:55:22.091Z,21.90
2018-04-22T01:56:22.226Z,23.00
2018-04-22T01:57:22.365Z,22.60
2018-04-22T01:58:22.506Z,22.40
2018-04-22T01:59:22.643Z,22.70
2018-04-22T02:00:22.776Z,24.30
2018-04-22T02:01:22.919Z,24.00
2018-04-22T02:02:23.099Z,23.20
2018-04-22T02:03:23.228Z,22.90
2018-04-22T02:04:23.368Z,23.90
2018-04-22T02:05:23.503Z,22.60
2018-04-22T02:06:23.669Z,22.00
2018-04-22T02:07:23.798Z,20.30
2018-04-22T02:08:23.937Z,21.50
2018-04-22T02:09:24.071Z,21.90
2018-04-22T02:10:24.227Z,20.60
2018-04-22T02:11:24.364Z,21.80
2018-04-22T02:12:24.507Z,22.80
2018-04-22T02:13:24.691Z,22.00
2018-04-22T02:14:24.831Z,22.10
2018-04-22T02:15:24.989Z,22.80
2018-04-22T02:16:25.130Z,21.90
2018-04-22T02:17:25.307Z,22.50
2018-04-22T02:18:25.443Z,24.00
2018-04-22T02:19:25.590Z,23.90
2018-04-22T02:20:25.744Z,23.80
2018-04-22T02:21:25.874Z,22.90
2018-04-22T02:22:26.018Z,23.50
2018-04-22T02:23:26.164Z,22.90
2018-04-22T02:24:26.288Z,21.40
2018-04-22T02:25:26.428Z,22.00
2018-04-22T02:26:26.571Z,20.80
2018-04-22T02:27:26.723Z,21.50
2018-04-22T02:28:26.852Z,20.80
2018-04-22T02:29:27.073Z,20.80
2018-04-22T02:30:27.093Z,20.90
2018-04-22T02:31:27.244Z,22.60
2018-04-22T02:32:27.374Z,24.50
2018-04-22T02:33:27.509Z,22.40
2018-04-22T02:34:27.647Z,22.50
2018-04-22T02:35:27.806Z,23.20
2018-04-22T02:36:27.940Z,22.30
2018-04-22T02:37:28.077Z,22.00
2018-04-22T02:38:28.219Z,22.30
2018-04-22T02:39:28.368Z,20.90
2018-04-22T02:40:28.504Z,22.10
2018-04-22T02:41:28.649Z,20.90
2018-04-22T02:42:28.782Z,23.70
2018-04-22T02:43:28.946Z,25.80
2018-04-22T02:44:29.058Z,22.60
2018-04-22T02:45:29.195Z,22.60
2018-04-22T02:46:29.338Z,22.70
2018-04-22T02:47:29.473Z,23.20
2018-04-22T02:48:29.610Z,23.70
2018-04-22T02:49:29.753Z,25.40
2018-04-22T02:50:29.884Z,24.70
2018-04-22T02:51:30.029Z,24.30
2018-04-22T02:52:30.167Z,23.80
2018-04-22T02:53:30.311Z,24.90
2018-04-22T02:54:30.443Z,23.70
2018-04-22T02:55:30.586Z,23.00
2018-04-22T02:56:30.723Z,23.10
2018-04-22T02:57:30.862Z,23.10
2018-04-22T02:58:31.007Z,22.40
2018-04-22T02:59:31.144Z,22.90
2018-04-22T03:00:31.284Z,23.40
2018-04-22T03:01:31.431Z,22.80
2018-04-22T03:02:31.572Z,23.10
2018-04-22T03:03:31.709Z,22.90
2018-04-22T03:04:31.847Z,23.00
2018-04-22T03:05:31.990Z,23.20
2018-04-22T03:06:32.126Z,22.80
2018-04-22T03:07:32.266Z,24.70
2018-04-22T03:08:32.396Z,24.00
2018-04-22T03:09:32.550Z,23.10
2018-04-22T03:10:32.766Z,24.20
2018-04-22T03:11:32.774Z,23.40
2018-04-22T03:12:32.908Z,24.30
2018-04-22T03:13:33.059Z,25.00
2018-04-22T03:14:33.193Z,25.00
2018-04-22T03:15:33.334Z,24.70
2018-04-22T03:16:33.497Z,24.80
2018-04-22T03:17:33.634Z,24.80
2018-04-22T03:18:33.770Z,25.20
2018-04-22T03:19:33.909Z,25.30
2018-04-22T03:20:34.074Z,25.50
2018-04-22T03:21:34.205Z,26.00
2018-04-22T03:22:34.347Z,26.20
2018-04-22T03:23:34.481Z,25.60
2018-04-22T03:24:34.633Z,26.00
2018-04-22T03:25:34.771Z,24.70
2018-04-22T03:26:34.910Z,25.20
2018-04-22T03:27:35.049Z,24.80
2018-04-22T03:28:35.204Z,24.70
2018-04-22T03:29:35.335Z,25.10
2018-04-22T03:30:35.679Z,25.20
2018-04-22T03:31:35.552Z,25.40
2018-04-22T03:32:35.708Z,25.60
2018-04-22T03:33:35.834Z,26.30
2018-04-22T03:34:36.226Z,25.80
2018-04-22T03:35:36.143Z,26.30
2018-04-22T03:36:36.317Z,26.40
2018-04-22T03:37:36.411Z,25.40
2018-04-22T03:38:36.548Z,24.50
2018-04-22T03:39:36.731Z,25.10
2018-04-22T03:40:36.876Z,25.70
2018-04-22T03:41:37.000Z,26.20
2018-04-22T03:42:37.194Z,25.30
2018-04-22T03:43:37.286Z,25.80
2018-04-22T03:44:37.420Z,25.80
2018-04-22T03:45:37.559Z,25.30
2018-04-22T03:46:37.706Z,27.90
2018-04-22T03:47:37.840Z,27.30
2018-04-22T03:48:37.980Z,26.90
2018-04-22T03:49:38.117Z,25.30
2018-04-22T03:50:38.265Z,26.40
2018-04-22T03:51:38.393Z,26.90
2018-04-22T03:52:38.531Z,25.50
2018-04-22T03:53:38.665Z,26.00
2018-04-22T03:54:38.806Z,24.80
2018-04-22T03:55:38.951Z,24.60
2018-04-22T03:56:39.090Z,25.50
2018-04-22T03:57:39.228Z,24.60
2018-04-22T03:58:39.369Z,23.30
2018-04-22T03:59:39.508Z,23.20
2018-04-22T04:00:39.645Z,22.90
2018-04-22T04:01:39.779Z,23.70
2018-04-22T04:02:39.919Z,23.50
2018-04-22T04:03:40.061Z,23.00
2018-04-22T04:04:40.197Z,23.00
2018-04-22T04:05:40.342Z,23.50
2018-04-22T04:06:40.477Z,21.80
2018-04-22T04:07:40.613Z,22.00
2018-04-22T04:08:40.746Z,22.80
2018-04-22T04:09:40.890Z,22.80
2018-04-22T04:10:41.024Z,22.20
2018-04-22T04:11:41.167Z,22.70
2018-04-22T04:12:41.300Z,22.20
2018-04-22T04:13:41.442Z,22.20
2018-04-22T04:14:41.575Z,22.20
2018-04-22T04:15:41.716Z,22.60
2018-04-22T04:16:41.852Z,22.70
2018-04-22T04:17:42.000Z,24.30
2018-04-22T04:18:42.131Z,22.70
2018-04-22T04:19:42.270Z,22.20
2018-04-22T04:20:42.405Z,22.20
2018-04-22T04:21:42.572Z,22.00
2018-04-22T04:22:42.705Z,21.80
2018-04-22T04:23:42.852Z,22.70
2018-04-22T04:24:42.992Z,23.00
2018-04-22T04:25:43.173Z,23.70
2018-04-22T04:26:43.300Z,23.10
2018-04-22T04:27:43.429Z,22.40
2018-04-22T04:28:43.567Z,22.50
2018-04-22T04:29:43.722Z,22.60
2018-04-22T04:30:43.857Z,22.10
2018-04-22T04:31:43.995Z,23.10
2018-04-22T04:32:44.133Z,22.40
2018-04-22T04:33:44.286Z,23.80
2018-04-22T04:34:44.417Z,24.70
2018-04-22T04:35:44.577Z,24.40
2018-04-22T04:36:44.714Z,25.60
2018-04-22T04:37:44.873Z,25.30
2018-04-22T04:38:45.081Z,24.60
2018-04-22T04:39:45.090Z,25.10
2018-04-22T04:40:45.238Z,25.20
2018-04-22T04:41:45.376Z,24.60
2018-04-22T04:42:45.508Z,24.70
2018-04-22T04:43:45.645Z,24.90
2018-04-22T04:44:45.789Z,25.70
2018-04-22T04:45:45.921Z,24.40
2018-04-22T04:46:46.067Z,24.50
2018-04-22T04:47:46.195Z,24.20
2018-04-22T04:48:46.375Z,23.30
2018-04-22T04:49:46.505Z,23.20
2018-04-22T04:50:46.641Z,23.10
2018-04-22T04:51:46.817Z,23.20
2018-04-22T04:52:46.949Z,22.90
2018-04-22T04:53:47.081Z,24.90
2018-04-22T04:54:47.221Z,24.80
2018-04-22T04:55:47.379Z,24.50
2018-04-22T04:56:47.523Z,24.50
2018-04-22T04:57:47.667Z,24.60
2018-04-22T04:58:47.804Z,25.30
2018-04-22T04:59:47.941Z,26.50
2018-04-22T05:00:48.083Z,26.00
2018-04-22T05:01:48.224Z,26.00
2018-04-22T05:02:48.363Z,25.70
2018-04-22T05:03:48.499Z,23.50
2018-04-22T05:04:48.641Z,22.00
2018-04-22T05:05:48.775Z,23.70
2018-04-22T05:06:48.913Z,23.00
2018-04-22T05:07:49.052Z,22.20
2018-04-22T05:08:49.193Z,22.20
2018-04-22T05:09:49.333Z,22.60
2018-04-22T05:10:49.470Z,21.90
2018-04-22T05:11:49.609Z,23.30
2018-04-22T05:12:49.742Z,23.20
2018-04-22T05:13:49.894Z,23.50
2018-04-22T05:14:50.026Z,24.00
2018-04-22T05:15:50.201Z,23.10
2018-04-22T05:16:50.316Z,24.40
2018-04-22T05:17:50.462Z,23.60
2018-04-22T05:18:50.593Z,24.00
2018-04-22T05:19:50.814Z,23.90
2018-04-22T05:20:50.830Z,23.70
2018-04-22T05:21:50.964Z,23.80
2018-04-22T05:22:51.107Z,24.00
2018-04-22T05:23:51.241Z,22.60
2018-04-22T05:24:51.386Z,23.20
2018-04-22T05:25:51.521Z,23.30
2018-04-22T05:26:51.662Z,22.60
2018-04-22T05:27:51.799Z,21.40
2018-04-22T05:28:51.953Z,22.80
2018-04-22T05:29:52.088Z,22.00
2018-04-22T05:30:52.231Z,22.70
2018-04-22T05:31:52.367Z,23.60
2018-04-22T05:32:52.503Z,22.20
2018-04-22T05:33:52.630Z,23.00
2018-04-22T05:34:52.769Z,22.70
2018-04-22T05:35:52.916Z,23.70
2018-04-22T05:36:53.057Z,22.90
2018-04-22T05:37:53.192Z,24.40
2018-04-22T05:38:53.352Z,24.30
2018-04-22T05:39:53.491Z,23.60
2018-04-22T05:40:53.626Z,22.90
2018-04-22T05:41:53.783Z,22.60
2018-04-22T05:42:53.914Z,22.40
2018-04-22T05:43:54.053Z,20.90
2018-04-22T05:44:54.194Z,21.40
2018-04-22T05:45:54.361Z,20.40
2018-04-22T05:46:54.506Z,21.00
2018-04-22T05:47:54.634Z,20.80
2018-04-22T05:48:54.775Z,20.40
2018-04-22T05:49:54.979Z,20.40
2018-04-22T05:50:55.066Z,19.90
2018-04-22T05:51:55.203Z,21.10
2018-04-22T05:52:55.354Z,19.20
2018-04-22T05:53:55.495Z,20.80
2018-04-22T05:54:55.635Z,20.30
2018-04-22T05:55:55.766Z,21.20
2018-04-22T05:56:55.928Z,21.10
2018-04-22T05:57:56.052Z,20.60
2018-04-22T05:58:56.193Z,20.80
2018-04-22T05:59:56.335Z,21.10
2018-04-22T06:00:56.481Z,21.00
2018-04-22T06:01:56.608Z,21.80
2018-04-22T06:02:56.745Z,21.90
2018-04-22T06:03:56.899Z,22.90
2018-04-22T06:04:57.034Z,22.60
2018-04-22T06:05:57.175Z,22.50
2018-04-22T06:06:57.329Z,23.60
2018-04-22T06:07:57.469Z,23.70
2018-04-22T06:08:57.610Z,23.70
2018-04-22T06:09:57.751Z,24.20
2018-04-22T06:10:57.885Z,23.90
2018-04-22T06:11:58.013Z,22.90
2018-04-22T06:12:58.153Z,22.20
2018-04-22T06:13:58.292Z,22.70
2018-04-22T06:14:58.438Z,22.80
2018-04-22T06:15:58.575Z,23.50
2018-04-22T06:16:58.706Z,23.40
2018-04-22T06:17:58.859Z,22.60
2018-04-22T06:18:58.993Z,22.10
2018-04-22T06:19:59.142Z,23.10
2018-04-22T06:20:59.291Z,23.70
2018-04-22T06:21:59.426Z,22.40
2018-04-22T06:22:59.573Z,23.80
2018-04-22T06:23:59.710Z,24.40
2018-04-22T06:24:59.849Z,23.30
2018-04-22T06:25:59.983Z,23.60
2018-04-22T06:27:00.121Z,23.40
2018-04-22T06:28:00.313Z,23.90
2018-04-22T06:29:00.441Z,24.10
2018-04-22T06:30:00.582Z,24.10
2018-04-22T06:31:00.716Z,24.00
2018-04-22T06:32:00.851Z,24.30
2018-04-22T06:33:01.037Z,23.60
2018-04-22T06:34:01.145Z,24.00
2018-04-22T06:35:01.277Z,24.30
2018-04-22T06:36:01.445Z,24.40
2018-04-22T06:37:01.579Z,24.00
2018-04-22T06:38:01.712Z,24.20
2018-04-22T06:39:01.847Z,24.70
2018-04-22T06:40:02.002Z,24.80
2018-04-22T06:41:02.138Z,25.30
2018-04-22T06:42:02.287Z,24.80
2018-04-22T06:43:02.419Z,25.70
2018-04-22T06:44:02.579Z,25.60
2018-04-22T06:45:02.716Z,26.20
2018-04-22T06:46:02.865Z,26.80
2018-04-22T06:47:03.013Z,27.30
2018-04-22T06:48:03.140Z,26.10
2018-04-22T06:49:03.284Z,27.60
2018-04-22T06:50:03.468Z,27.40
2018-04-22T06:51:03.581Z,29.50
2018-04-22T06:52:03.719Z,28.30
2018-04-22T06:53:03.866Z,26.60
2018-04-22T06:54:04.023Z,26.60
2018-04-22T06:55:04.162Z,27.50
2018-04-22T06:56:04.295Z,28.50
2018-04-22T06:57:04.454Z,27.80
2018-04-22T06:58:04.602Z,29.60
2018-04-22T06:59:04.734Z,29.50
2018-04-22T07:00:04.885Z,28.70
2018-04-22T07:01:05.048Z,28.90
2018-04-22T07:02:05.185Z,28.50
2018-04-22T07:03:05.337Z,28.80
2018-04-22T07:04:05.477Z,28.40
2018-04-22T07:05:05.641Z,30.70
2018-04-22T07:06:05.782Z,30.20
2018-04-22T07:07:05.930Z,29.40
2018-04-22T07:08:06.078Z,29.80
2018-04-22T07:09:06.215Z,28.40
2018-04-22T07:10:06.362Z,29.30
2018-04-22T07:11:06.503Z,28.10
2018-04-22T07:12:06.641Z,29.30
2018-04-22T07:13:06.779Z,28.00
2018-04-22T07:14:06.917Z,29.50
2018-04-22T07:15:07.086Z,29.80
2018-04-22T07:16:07.222Z,29.70
2018-04-22T07:17:07.358Z,32.40
2018-04-22T07:18:07.535Z,31.40
2018-04-22T07:19:07.666Z,30.90
2018-04-22T07:20:07.808Z,30.80
2018-04-22T07:21:07.947Z,31.60
2018-04-22T07:22:08.089Z,31.70
2018-04-22T07:23:08.222Z,32.20
2018-04-22T07:24:08.362Z,31.40
2018-04-22T07:25:08.507Z,32.00
2018-04-22T07:26:08.653Z,31.80
2018-04-22T07:27:08.802Z,33.10
2018-04-22T07:28:08.932Z,30.90
2018-04-22T07:29:09.079Z,32.30
2018-04-22T07:30:09.239Z,34.70
2018-04-22T07:31:09.536Z,33.70
2018-04-22T07:32:09.535Z,33.40
2018-04-22T07:33:09.619Z,34.50
2018-04-22T07:34:09.753Z,35.00
2018-04-22T07:35:09.889Z,35.30
2018-04-22T07:36:10.040Z,37.10
2018-04-22T07:37:10.175Z,35.60
2018-04-22T07:38:10.326Z,35.90
2018-04-22T07:39:10.463Z,37.30
2018-04-22T07:40:10.612Z,35.90
2018-04-22T07:41:10.773Z,35.80
2018-04-22T07:42:10.914Z,34.80
2018-04-22T07:43:11.087Z,35.20
2018-04-22T07:44:11.364Z,35.60
2018-04-22T07:45:11.429Z,39.70
2018-04-22T07:46:11.566Z,37.90
2018-04-22T07:47:12.340Z,36.90
2018-04-22T07:48:11.879Z,36.30
2018-04-22T07:49:12.024Z,38.00
2018-04-22T07:50:12.149Z,35.40
2018-04-22T07:51:12.286Z,34.40
2018-04-22T07:52:12.576Z,36.40
2018-04-22T07:53:12.611Z,35.60
2018-04-22T07:54:12.770Z,36.40
2018-04-22T07:55:12.908Z,34.50
2018-04-22T07:56:13.048Z,35.40
2018-04-22T07:57:13.213Z,35.30
2018-04-22T07:58:13.362Z,33.90
2018-04-22T07:59:13.503Z,37.50
2018-04-22T08:00:13.648Z,36.80
2018-04-22T08:01:13.786Z,34.90
2018-04-22T08:02:13.950Z,38.70
2018-04-22T08:03:14.062Z,36.50
2018-04-22T08:04:14.199Z,39.10
2018-04-22T08:05:14.338Z,37.90
2018-04-22T08:06:14.468Z,38.50
2018-04-22T08:07:14.602Z,35.90
2018-04-22T08:08:14.746Z,34.40
2018-04-22T08:09:14.891Z,35.40
2018-04-22T08:10:16.731Z,34.60
2018-04-22T08:11:15.175Z,35.10
2018-04-22T08:12:15.321Z,34.20
2018-04-22T08:13:15.458Z,33.40
2018-04-22T08:14:15.630Z,34.60
2018-04-22T08:15:15.723Z,35.60
2018-04-22T08:16:15.897Z,35.10
2018-04-22T08:17:16.014Z,33.90
2018-04-22T08:18:16.148Z,33.50
2018-04-22T08:19:16.287Z,35.30
2018-04-22T08:20:16.431Z,35.50
2018-04-22T08:21:16.578Z,33.30
2018-04-22T08:22:16.714Z,33.80
2018-04-22T08:23:16.860Z,32.80
2018-04-22T08:24:17.002Z,32.70
2018-04-22T08:25:17.138Z,32.90
2018-04-22T08:26:17.299Z,33.90
2018-04-22T08:27:17.431Z,37.40
2018-04-22T08:28:17.610Z,33.90
2018-04-22T08:29:17.765Z,36.10
2018-04-22T08:30:17.888Z,32.10
2018-04-22T08:31:18.029Z,32.00
2018-04-22T08:32:18.176Z,32.10
2018-04-22T08:33:18.357Z,32.00
2018-04-22T08:34:18.457Z,33.80
2018-04-22T08:35:18.597Z,35.40
2018-04-22T08:36:18.741Z,35.00
2018-04-22T08:37:18.877Z,32.70
2018-04-22T08:38:19.025Z,32.20
2018-04-22T08:39:19.159Z,33.90
2018-04-22T08:40:19.299Z,32.00
2018-04-22T08:41:19.456Z,34.20
2018-04-22T08:42:19.606Z,31.20
2018-04-22T08:43:19.750Z,34.40
2018-04-22T08:44:19.890Z,36.60
2018-04-22T08:45:20.023Z,33.40
2018-04-22T08:46:20.160Z,35.40
2018-04-22T08:47:20.340Z,33.70
2018-04-22T08:48:20.437Z,35.30
2018-04-22T08:49:20.575Z,33.60
2018-04-22T08:50:20.741Z,34.60
2018-04-22T08:51:20.883Z,32.50
2018-04-22T08:52:21.029Z,36.10
2018-04-22T08:53:21.203Z,33.70
2018-04-22T08:54:21.337Z,32.10
2018-04-22T08:55:21.487Z,33.20
2018-04-22T08:56:21.631Z,40.00
2018-04-22T08:57:21.778Z,38.10
2018-04-22T08:58:21.923Z,33.40
2018-04-22T08:59:22.103Z,31.20
2018-04-22T09:00:22.198Z,45.30
2018-04-22T09:01:22.340Z,39.30
2018-04-22T09:02:22.481Z,34.90
2018-04-22T09:03:22.620Z,50.80
2018-04-22T09:04:22.770Z,34.50
2018-04-22T09:05:22.918Z,32.00
2018-04-22T09:06:23.059Z,31.20
2018-04-22T09:07:23.199Z,35.50
2018-04-22T09:08:23.350Z,29.60
2018-04-22T09:09:23.479Z,32.70
2018-04-22T09:10:23.628Z,30.40
2018-04-22T09:11:23.772Z,30.70
2018-04-22T09:12:23.917Z,47.80
2018-04-22T09:13:24.075Z,36.30
2018-04-22T09:14:24.204Z,33.90
2018-04-22T09:15:24.367Z,38.60
2018-04-22T09:16:24.583Z,31.30
2018-04-22T09:17:24.665Z,40.50
2018-04-22T09:18:24.801Z,33.20
2018-04-22T09:19:24.944Z,59.10
2018-04-22T09:20:25.159Z,32.90
2018-04-22T09:21:25.192Z,37.80
2018-04-22T09:22:25.330Z,41.10
2018-04-22T09:23:25.475Z,36.00
2018-04-22T09:24:25.612Z,92.20
2018-04-22T09:25:25.759Z,68.70
2018-04-22T09:26:25.901Z,106.20
2018-04-22T09:27:26.048Z,66.40
2018-04-22T09:28:26.189Z,70.10
2018-04-22T09:29:26.335Z,40.90
2018-04-22T09:30:26.474Z,57.00
2018-04-22T09:31:26.602Z,47.10
2018-04-22T09:32:26.752Z,34.10
2018-04-22T09:33:26.894Z,31.10
2018-04-22T09:34:27.039Z,36.50
2018-04-22T09:35:27.186Z,34.70
2018-04-22T09:36:27.322Z,41.90
2018-04-22T09:37:27.466Z,42.30
2018-04-22T09:38:27.620Z,39.50
2018-04-22T09:39:27.745Z,34.90
2018-04-22T09:40:27.893Z,34.00
2018-04-22T09:41:28.038Z,33.90
2018-04-22T09:42:28.182Z,33.10
2018-04-22T09:43:28.326Z,31.40
2018-04-22T09:44:28.476Z,32.10
2018-04-22T09:45:28.620Z,28.60
2018-04-22T09:46:28.772Z,29.20
2018-04-22T09:47:28.909Z,24.90
2018-04-22T09:48:29.057Z,25.10
2018-04-22T09:49:29.202Z,24.90
2018-04-22T09:50:29.340Z,27.30
2018-04-22T09:51:29.478Z,22.60
2018-04-22T09:52:29.628Z,21.00
2018-04-22T09:53:29.787Z,20.40
2018-04-22T09:54:29.918Z,21.20
2018-04-22T09:55:30.056Z,20.60
2018-04-22T09:56:30.196Z,18.80
2018-04-22T09:57:30.334Z,18.60
2018-04-22T09:58:30.480Z,18.60
2018-04-22T09:59:30.633Z,18.20
2018-04-22T10:00:30.777Z,16.90
2018-04-22T10:01:30.933Z,16.70
2018-04-22T10:02:31.073Z,16.20
2018-04-22T10:03:31.220Z,16.60
2018-04-22T10:04:31.367Z,16.10
2018-04-22T10:05:31.514Z,16.20
2018-04-22T10:06:31.664Z,16.00
2018-04-22T10:07:31.809Z,16.10
2018-04-22T10:08:31.942Z,15.80
2018-04-22T10:09:32.085Z,15.50
2018-04-22T10:10:32.238Z,15.30
2018-04-22T10:11:32.378Z,15.10
2018-04-22T10:12:32.525Z,14.30
2018-04-22T10:13:32.673Z,14.20
2018-04-22T10:14:32.833Z,15.00
2018-04-22T10:15:32.962Z,14.10
2018-04-22T10:16:33.162Z,15.00
2018-04-22T10:17:33.266Z,15.70
2018-04-22T10:18:33.423Z,13.40
2018-04-22T10:19:33.573Z,15.80
2018-04-22T10:20:33.730Z,13.20
2018-04-22T10:21:34.696Z,12.40
2018-04-22T10:22:33.946Z,13.10
2018-04-22T10:23:34.084Z,13.20
2018-04-22T10:24:34.232Z,12.00
2018-04-22T10:25:34.390Z,12.00
2018-04-22T10:26:34.536Z,12.50
2018-04-22T10:27:34.689Z,13.70
2018-04-22T10:28:34.849Z,22.20
2018-04-22T10:29:34.984Z,13.70
2018-04-22T10:30:35.127Z,12.10
2018-04-22T10:31:35.319Z,12.70
2018-04-22T10:32:35.465Z,12.90
2018-04-22T10:33:35.624Z,12.00
2018-04-22T10:34:35.756Z,11.50
2018-04-22T10:35:35.918Z,11.80
2018-04-22T10:36:36.044Z,12.70
2018-04-22T10:37:36.178Z,11.60
2018-04-22T10:38:36.334Z,11.20
2018-04-22T10:39:36.475Z,11.00
2018-04-22T10:40:36.627Z,9.80
2018-04-22T10:41:36.868Z,9.70
2018-04-22T10:42:36.884Z,8.50
2018-04-22T10:43:37.054Z,11.60
2018-04-22T10:44:37.201Z,27.80
2018-04-22T10:45:37.367Z,9.90
2018-04-22T10:46:37.520Z,9.80
2018-04-22T10:47:37.660Z,26.70
2018-04-22T10:48:37.801Z,9.70
2018-04-22T10:49:37.955Z,8.10
2018-04-22T10:50:38.099Z,9.10
2018-04-22T10:51:38.245Z,10.00
2018-04-22T10:52:38.704Z,8.30
2018-04-22T10:53:38.486Z,10.10
2018-04-22T10:54:38.632Z,11.00
2018-04-22T10:55:38.781Z,11.70
2018-04-22T10:56:38.928Z,10.20
2018-04-22T10:57:39.072Z,8.90
2018-04-22T10:58:39.275Z,12.50
2018-04-22T10:59:39.297Z,9.40
2018-04-22T11:00:39.451Z,10.50
2018-04-22T11:01:39.587Z,9.70
2018-04-22T11:02:39.735Z,10.30
2018-04-22T11:03:39.878Z,7.60
2018-04-22T11:04:40.077Z,7.70
2018-04-22T11:05:40.186Z,10.10
2018-04-22T11:06:40.389Z,10.80
2018-04-22T11:07:40.438Z,9.80
2018-04-22T11:08:40.589Z,9.50
2018-04-22T11:09:40.737Z,8.20
2018-04-22T11:10:40.891Z,8.80
2018-04-22T11:11:41.041Z,8.70
2018-04-22T11:12:41.187Z,9.60
2018-04-22T11:13:41.341Z,8.90
2018-04-22T11:14:41.739Z,8.50
2018-04-22T11:15:41.816Z,9.30
2018-04-22T11:16:41.720Z,6.70
2018-04-22T11:17:41.891Z,8.80
2018-04-22T11:18:42.035Z,6.20
2018-04-22T11:19:42.185Z,6.10
2018-04-22T11:20:42.332Z,7.10
2018-04-22T11:21:42.479Z,93.50
2018-04-22T11:22:42.630Z,31.20
2018-04-22T11:23:42.787Z,19.30
2018-04-22T11:24:42.948Z,34.40
2018-04-22T11:25:43.087Z,13.40
2018-04-22T11:26:43.248Z,11.30
2018-04-22T11:27:43.400Z,10.20
2018-04-22T11:28:43.545Z,9.20
2018-04-22T11:29:43.700Z,10.10
2018-04-22T11:30:43.855Z,9.40
2018-04-22T11:31:43.998Z,9.90
2018-04-22T11:32:44.150Z,9.40
2018-04-22T11:33:44.294Z,10.70
2018-04-22T11:34:44.445Z,7.20
2018-04-22T11:35:44.589Z,9.70
2018-04-22T11:36:44.748Z,8.70
2018-04-22T11:37:44.956Z,6.90
2018-04-22T11:38:44.995Z,7.30
2018-04-22T11:39:45.146Z,7.70
2018-04-22T11:40:45.299Z,7.70
2018-04-22T11:41:45.452Z,8.50
2018-04-22T11:42:45.596Z,7.80
2018-04-22T11:43:45.744Z,8.10
2018-04-22T11:44:45.897Z,7.20
2018-04-22T11:45:46.047Z,7.30
2018-04-22T11:46:46.195Z,8.90
2018-04-22T11:47:46.376Z,7.10
2018-04-22T11:48:46.538Z,6.70
2018-04-22T11:49:46.691Z,7.00
2018-04-22T11:50:46.839Z,9.20
2018-04-22T11:51:47.009Z,8.60
2018-04-22T11:52:47.281Z,6.80
2018-04-22T11:53:47.312Z,6.20
2018-04-22T11:54:47.465Z,5.30
2018-04-22T11:55:47.625Z,6.00
2018-04-22T11:56:47.775Z,6.90
2018-04-22T11:57:47.921Z,11.60
2018-04-22T11:58:48.079Z,10.20
2018-04-22T11:59:48.253Z,8.60
2018-04-22T12:00:48.405Z,6.90
2018-04-22T12:01:48.547Z,6.10
2018-04-22T12:02:48.692Z,8.70
2018-04-22T12:03:48.890Z,9.50
2018-04-22T12:04:49.007Z,9.50
2018-04-22T12:05:49.168Z,7.70
2018-04-22T12:06:49.311Z,6.70
2018-04-22T12:07:49.463Z,6.10
2018-04-22T12:08:49.616Z,9.00
2018-04-22T12:09:49.765Z,7.70
2018-04-22T12:10:49.925Z,5.90
2018-04-22T12:11:50.059Z,8.50
2018-04-22T12:12:50.211Z,5.90
2018-04-22T12:13:50.370Z,6.60
2018-04-22T12:14:50.520Z,7.70
2018-04-22T12:15:50.667Z,6.60
2018-04-22T12:16:50.809Z,7.40
2018-04-22T12:17:52.220Z,16.50
2018-04-22T12:18:51.134Z,15.50
2018-04-22T12:19:51.279Z,9.70
2018-04-22T12:20:51.432Z,9.20
2018-04-22T12:21:51.578Z,8.60
2018-04-22T12:22:51.738Z,10.00
2018-04-22T12:23:51.887Z,7.20
2018-04-22T12:24:52.047Z,11.30
2018-04-22T12:25:52.188Z,8.80
2018-04-22T12:26:52.333Z,12.00
2018-04-22T12:27:52.479Z,10.00
2018-04-22T12:28:52.625Z,8.50
2018-04-22T12:29:52.782Z,10.10
2018-04-22T12:30:52.936Z,10.90
2018-04-22T12:31:53.109Z,17.90
2018-04-22T12:32:53.224Z,9.30
2018-04-22T12:33:53.392Z,12.10
2018-04-22T12:34:53.529Z,10.40
2018-04-22T12:35:53.683Z,13.90
2018-04-22T12:36:53.840Z,10.00
2018-04-22T12:37:54.064Z,7.60
2018-04-22T12:38:54.150Z,9.80
2018-04-22T12:39:54.303Z,8.90
2018-04-22T12:40:54.454Z,7.40
2018-04-22T12:41:54.598Z,7.70
2018-04-22T12:42:54.747Z,19.00
2018-04-22T12:43:54.898Z,9.30
2018-04-22T12:44:55.036Z,9.90
2018-04-22T12:45:55.182Z,7.70
2018-04-22T12:46:55.339Z,8.90
2018-04-22T12:47:55.602Z,7.90
2018-04-22T12:48:55.663Z,10.00
2018-04-22T12:49:55.817Z,8.50
2018-04-22T12:50:55.952Z,8.10
2018-04-22T12:51:56.107Z,9.20
2018-04-22T12:52:56.256Z,6.40
2018-04-22T12:53:56.439Z,8.80
2018-04-22T12:54:56.567Z,10.80
2018-04-22T12:55:56.717Z,9.20
2018-04-22T12:56:56.898Z,8.90